createdAt,value
2022-08-25T00:00:25.506Z,33.70
2022-08-25T00:02:58.380Z,33.70
2022-08-25T00:05:33.558Z,33.70
2022-08-25T00:08:06.810Z,33.60
2022-08-25T00:10:40.853Z,33.70
2022-08-25T00:13:11.727Z,33.70
2022-08-25T00:15:42.491Z,33.60
2022-08-25T00:18:19.897Z,33.50
2022-08-25T00:20:50.969Z,33.50
2022-08-25T00:23:22.266Z,33.50
2022-08-25T00:25:54.632Z,33.30
2022-08-25T00:28:25.602Z,33.20
2022-08-25T00:30:58.345Z,33.20
2022-08-25T00:33:29.095Z,33.10
2022-08-25T00:36:00.860Z,33.00
2022-08-25T00:38:32.252Z,32.90
2022-08-25T00:41:11.951Z,32.80
2022-08-25T00:43:50.416Z,32.80
2022-08-25T00:46:23.205Z,32.90
2022-08-25T00:48:58.674Z,32.80
2022-08-25T00:51:45.486Z,32.70
2022-08-25T00:54:21.079Z,32.70
2022-08-25T00:56:54.549Z,32.70
2022-08-25T00:59:27.191Z,32.60
2022-08-25T01:01:59.666Z,32.60
2022-08-25T01:04:30.702Z,32.50
2022-08-25T01:07:03.450Z,32.50
2022-08-25T01:09:35.696Z,32.50
2022-08-25T01:12:08.561Z,32.40
2022-08-25T01:14:41.061Z,32.30
2022-08-25T01:17:11.807Z,32.30
2022-08-25T01:19:42.792Z,32.30
2022-08-25T01:22:15.320Z,32.20
2022-08-25T01:24:51.596Z,32.20
2022-08-25T01:27:22.317Z,32.20
2022-08-25T01:29:53.371Z,32.10
2022-08-25T01:32:24.089Z,32.10
2022-08-25T01:34:54.840Z,32.00
2022-08-25T01:37:27.217Z,31.90
2022-08-25T01:39:58.058Z,31.80
2022-08-25T01:42:44.666Z,31.70
2022-08-25T01:45:15.411Z,31.70
2022-08-25T01:47:46.211Z,31.70
2022-08-25T01:50:17.561Z,31.70
2022-08-25T01:52:57.063Z,31.60
2022-08-25T01:55:28.478Z,31.60
2022-08-25T01:58:01.003Z,31.60
2022-08-25T02:00:32.276Z,31.50
2022-08-25T02:03:03.107Z,31.30
2022-08-25T02:05:36.428Z,31.20
2022-08-25T02:08:09.024Z,31.10
2022-08-25T02:10:40.214Z,30.90
2022-08-25T02:13:11.795Z,30.90
2022-08-25T02:15:46.340Z,30.80
2022-08-25T02:18:17.092Z,30.70
2022-08-25T02:20:49.256Z,30.70
2022-08-25T02:23:21.897Z,30.60
2022-08-25T02:25:52.666Z,30.60
2022-08-25T02:28:23.411Z,30.50
2022-08-25T02:30:58.548Z,30.30
2022-08-25T02:33:32.630Z,30.20
2022-08-25T02:36:04.447Z,30.10
2022-08-25T02:38:37.707Z,29.90
2022-08-25T02:41:14.992Z,29.80
2022-08-25T02:43:46.782Z,29.70
2022-08-25T02:46:18.822Z,29.60
2022-08-25T02:48:50.391Z,29.50
2022-08-25T02:51:21.604Z,29.40
2022-08-25T02:53:54.431Z,29.30
2022-08-25T02:56:25.218Z,29.20
2022-08-25T02:58:56.042Z,29.10
2022-08-25T03:01:29.085Z,29.00
2022-08-25T03:04:00.595Z,29.00
2022-08-25T03:06:31.757Z,28.90
2022-08-25T03:09:04.220Z,28.90
2022-08-25T03:11:34.987Z,28.70
2022-08-25T03:14:05.720Z,28.70
2022-08-25T03:16:36.774Z,28.70
2022-08-25T03:19:07.618Z,28.70
2022-08-25T03:21:39.919Z,28.70
2022-08-25T03:24:12.399Z,28.60
2022-08-25T03:26:56.961Z,28.70
2022-08-25T03:29:29.345Z,28.70
2022-08-25T03:32:00.830Z,28.60
2022-08-25T03:34:32.880Z,28.50
2022-08-25T03:37:03.775Z,28.40
2022-08-25T03:39:36.197Z,28.40
2022-08-25T03:42:07.269Z,28.20
2022-08-25T03:44:38.092Z,28.10
2022-08-25T03:47:09.232Z,28.10
2022-08-25T03:49:40.061Z,28.00
2022-08-25T03:52:10.815Z,28.00
2022-08-25T03:54:43.196Z,27.90
2022-08-25T03:57:14.144Z,27.90
2022-08-25T03:59:44.889Z,27.70
2022-08-25T04:02:15.662Z,27.70
2022-08-25T04:04:46.463Z,27.70
2022-08-25T04:07:17.269Z,27.70
2022-08-25T04:09:49.785Z,27.60
2022-08-25T04:12:20.488Z,27.50
2022-08-25T04:14:53.822Z,27.50
2022-08-25T04:17:24.569Z,27.50
2022-08-25T04:19:55.289Z,27.50
2022-08-25T04:22:26.006Z,27.50
2022-08-25T04:25:02.457Z,27.60
2022-08-25T04:27:33.204Z,27.50
2022-08-25T04:30:03.954Z,27.40
2022-08-25T04:32:34.724Z,27.30
2022-08-25T04:35:05.984Z,27.20
2022-08-25T04:37:36.782Z,27.10
2022-08-25T04:40:10.357Z,27.00
2022-08-25T04:42:41.174Z,26.90
2022-08-25T04:45:12.348Z,26.90
2022-08-25T04:47:43.546Z,26.80
2022-08-25T04:50:14.334Z,26.80
2022-08-25T04:52:45.099Z,26.60
2022-08-25T04:55:19.271Z,26.60
2022-08-25T04:57:50.015Z,26.50
2022-08-25T05:00:22.048Z,26.40
2022-08-25T05:02:52.782Z,26.30
2022-08-25T05:05:23.543Z,26.30
2022-08-25T05:07:54.287Z,26.20
2022-08-25T05:10:27.501Z,26.10
2022-08-25T05:12:58.300Z,26.00
2022-08-25T05:15:46.276Z,26.00
2022-08-25T05:18:17.418Z,26.10
2022-08-25T05:20:48.420Z,26.10
2022-08-25T05:23:19.434Z,26.20
2022-08-25T05:25:52.342Z,26.20
2022-08-25T05:28:23.788Z,26.10
2022-08-25T05:30:54.496Z,26.10
2022-08-25T05:33:25.222Z,25.90
2022-08-25T05:36:01.267Z,25.80
2022-08-25T05:38:32.093Z,25.70
2022-08-25T05:41:06.721Z,25.60
2022-08-25T05:43:39.002Z,25.50
2022-08-25T05:46:12.011Z,25.50
2022-08-25T05:48:43.348Z,25.40
2022-08-25T05:51:15.772Z,25.30
2022-08-25T05:53:48.367Z,25.40
2022-08-25T05:56:21.334Z,25.30
2022-08-25T05:58:52.617Z,25.30
2022-08-25T06:01:45.411Z,25.30
2022-08-25T06:04:16.643Z,25.20
2022-08-25T06:06:48.221Z,25.10
2022-08-25T06:09:18.967Z,25.00
2022-08-25T06:11:54.706Z,25.00
2022-08-25T06:14:26.571Z,24.90
2022-08-25T06:16:57.772Z,24.80
2022-08-25T06:19:28.526Z,24.80
2022-08-25T06:22:00.479Z,24.80
2022-08-25T06:24:32.164Z,24.80
2022-08-25T06:27:04.544Z,24.70
2022-08-25T06:29:35.373Z,24.60
2022-08-25T06:32:09.342Z,24.60
2022-08-25T06:34:40.109Z,24.50
2022-08-25T06:37:11.869Z,24.50
2022-08-25T06:39:42.699Z,24.40
2022-08-25T06:42:15.052Z,24.40
2022-08-25T06:44:45.996Z,24.40
2022-08-25T06:47:17.215Z,24.30
2022-08-25T06:49:48.212Z,24.30
2022-08-25T06:52:18.975Z,24.20
2022-08-25T06:54:50.043Z,24.20
2022-08-25T06:57:22.746Z,24.20
2022-08-25T06:59:53.890Z,24.20
2022-08-25T07:02:25.945Z,24.20
2022-08-25T07:04:56.747Z,24.10
2022-08-25T07:07:27.529Z,24.00
2022-08-25T07:10:14.394Z,24.00
2022-08-25T07:12:52.629Z,24.00
2022-08-25T07:15:23.707Z,24.00
2022-08-25T07:17:54.539Z,23.90
2022-08-25T07:23:00.974Z,23.80
2022-08-25T07:25:31.831Z,23.80
2022-08-25T07:28:04.607Z,23.70
2022-08-25T07:30:35.556Z,23.60
2022-08-25T07:33:06.957Z,23.50
2022-08-25T07:35:38.142Z,23.50
2022-08-25T07:38:13.016Z,23.40
2022-08-25T07:40:46.307Z,23.40
2022-08-25T07:43:26.100Z,23.30
2022-08-25T07:45:56.948Z,23.30
2022-08-25T07:48:27.969Z,23.20
2022-08-25T07:50:58.712Z,23.20
2022-08-25T07:53:29.431Z,23.20
2022-08-25T07:56:00.228Z,23.10
2022-08-25T07:58:32.693Z,23.10
2022-08-25T08:01:05.384Z,23.00
2022-08-25T08:03:50.079Z,23.00
2022-08-25T08:06:23.801Z,23.00
2022-08-25T08:08:57.824Z,23.00
2022-08-25T08:11:31.788Z,22.90
2022-08-25T08:14:04.999Z,22.90
2022-08-25T08:16:35.896Z,22.80
2022-08-25T08:19:07.445Z,22.80
2022-08-25T08:21:39.510Z,22.80
2022-08-25T08:24:31.162Z,22.70
2022-08-25T08:27:01.996Z,22.60
2022-08-25T08:29:34.405Z,22.70
2022-08-25T08:32:06.544Z,22.60
2022-08-25T08:34:38.908Z,22.60
2022-08-25T08:37:10.336Z,22.60
2022-08-25T08:39:41.811Z,22.50
2022-08-25T08:42:25.979Z,22.50
2022-08-25T08:45:15.914Z,22.50
2022-08-25T08:47:56.890Z,22.40
2022-08-25T08:50:34.364Z,22.30
2022-08-25T08:53:11.399Z,22.40
2022-08-25T08:55:51.871Z,22.30
2022-08-25T08:58:26.403Z,22.30
2022-08-25T09:01:02.602Z,22.30
2022-08-25T09:03:40.073Z,22.40
2022-08-25T09:06:14.281Z,22.30
2022-08-25T09:08:46.824Z,22.20
2022-08-25T09:11:28.304Z,22.20
2022-08-25T09:14:21.123Z,22.20
2022-08-25T09:17:00.520Z,22.20
2022-08-25T09:20:01.897Z,22.20
2022-08-25T09:22:50.669Z,22.10
2022-08-25T09:28:24.882Z,22.00
2022-08-25T09:31:00.734Z,22.00
2022-08-25T09:33:35.583Z,22.00
2022-08-25T09:36:08.959Z,21.90
2022-08-25T09:38:40.199Z,21.80
2022-08-25T09:41:12.135Z,21.80
2022-08-25T09:43:46.500Z,21.80
2022-08-25T09:46:20.932Z,21.70
2022-08-25T09:48:57.466Z,21.70
2022-08-25T09:51:42.198Z,21.70
2022-08-25T09:54:43.954Z,21.70
2022-08-25T09:57:35.695Z,21.60
2022-08-25T10:00:23.587Z,21.60
2022-08-25T10:03:15.632Z,21.40
2022-08-25T10:06:05.768Z,21.40
2022-08-25T10:08:40.949Z,21.40
2022-08-25T10:11:14.659Z,21.40
2022-08-25T10:13:48.064Z,21.40
2022-08-25T10:16:32.132Z,21.40
2022-08-25T10:19:10.774Z,21.30
2022-08-25T10:21:44.992Z,21.20
2022-08-25T10:24:16.987Z,21.10
2022-08-25T10:26:58.065Z,21.10
2022-08-25T10:29:42.664Z,21.10
2022-08-25T10:32:19.192Z,21.20
2022-08-25T10:34:52.871Z,21.00
2022-08-25T10:37:38.556Z,21.00
2022-08-25T10:40:18.442Z,21.00
2022-08-25T10:43:00.263Z,20.90
2022-08-25T10:45:48.642Z,20.90
2022-08-25T10:48:44.801Z,20.90
2022-08-25T10:51:32.377Z,20.90
2022-08-25T10:54:13.536Z,20.80
2022-08-25T10:56:47.481Z,20.80
2022-08-25T10:59:32.941Z,20.70
2022-08-25T11:02:31.335Z,20.80
2022-08-25T11:05:08.878Z,20.70
2022-08-25T11:07:44.361Z,20.70
2022-08-25T11:10:21.534Z,20.70
2022-08-25T11:12:57.668Z,20.60
2022-08-25T11:15:34.619Z,20.60
2022-08-25T11:18:14.569Z,20.60
2022-08-25T11:20:52.511Z,20.60
2022-08-25T11:23:26.538Z,20.60
2022-08-25T11:26:03.843Z,20.50
2022-08-25T11:28:38.867Z,20.50
2022-08-25T11:31:11.663Z,20.50
2022-08-25T11:33:42.473Z,20.60
2022-08-25T11:36:21.666Z,20.60
2022-08-25T11:39:13.001Z,20.50
2022-08-25T11:41:59.053Z,20.50
2022-08-25T11:45:07.835Z,20.40
2022-08-25T11:47:56.236Z,20.40
2022-08-25T11:50:35.173Z,20.30
2022-08-25T11:53:28.136Z,20.40
2022-08-25T11:56:03.512Z,20.30
2022-08-25T11:58:53.685Z,20.30
2022-08-25T12:02:03.975Z,20.20
2022-08-25T12:04:44.689Z,20.20
2022-08-25T12:07:28.394Z,20.10
2022-08-25T12:10:15.760Z,20.10
2022-08-25T12:13:30.605Z,20.10
2022-08-25T12:16:04.213Z,20.00
2022-08-25T12:18:50.430Z,19.90
2022-08-25T12:21:35.834Z,20.00
2022-08-25T12:24:17.272Z,19.90
2022-08-25T12:26:57.396Z,19.90
2022-08-25T12:29:35.960Z,19.90
2022-08-25T12:32:22.584Z,19.90
2022-08-25T12:35:34.544Z,19.80
2022-08-25T12:38:11.515Z,19.80
2022-08-25T12:40:56.378Z,19.80
2022-08-25T12:43:37.647Z,19.70
2022-08-25T12:46:36.473Z,19.70
2022-08-25T12:49:31.708Z,19.70
2022-08-25T12:52:07.476Z,19.70
2022-08-25T12:54:49.627Z,19.70
2022-08-25T12:57:37.219Z,19.70
2022-08-25T13:00:19.575Z,19.60
2022-08-25T13:03:16.330Z,19.60
2022-08-25T13:06:10.918Z,19.50
2022-08-25T13:09:08.872Z,19.50
2022-08-25T13:11:46.041Z,19.50
2022-08-25T13:14:26.960Z,19.40
2022-08-25T13:16:58.723Z,19.40
2022-08-25T13:19:34.746Z,19.30
2022-08-25T13:22:16.295Z,19.30
2022-08-25T13:24:50.790Z,19.40
2022-08-25T13:27:27.711Z,19.40
2022-08-25T13:30:03.727Z,19.40
2022-08-25T13:32:36.869Z,19.30
2022-08-25T13:35:21.705Z,19.30
2022-08-25T13:37:54.745Z,19.30
2022-08-25T13:40:27.519Z,19.30
2022-08-25T13:43:02.760Z,19.30
2022-08-25T13:45:41.091Z,19.30
2022-08-25T13:48:20.964Z,19.30
2022-08-25T13:50:54.356Z,19.40
2022-08-25T13:53:30.355Z,19.40
2022-08-25T13:56:02.914Z,19.40
2022-08-25T13:58:45.170Z,19.50
2022-08-25T14:01:44.181Z,19.50
2022-08-25T14:04:34.250Z,19.60
2022-08-25T14:07:14.846Z,19.60
2022-08-25T14:09:53.937Z,19.70
2022-08-25T14:12:38.280Z,19.70
2022-08-25T14:15:14.499Z,19.70
2022-08-25T14:17:48.180Z,19.90
2022-08-25T14:20:26.436Z,20.00
2022-08-25T14:23:01.718Z,20.00
2022-08-25T14:25:35.733Z,20.10
2022-08-25T14:28:08.502Z,20.10
2022-08-25T14:30:43.479Z,20.20
2022-08-25T14:33:17.894Z,20.20
2022-08-25T14:35:52.543Z,20.20
2022-08-25T14:38:25.351Z,20.20
2022-08-25T14:40:59.257Z,20.20
2022-08-25T14:43:31.551Z,20.20
2022-08-25T14:46:05.788Z,20.40
2022-08-25T14:48:42.352Z,20.40
2022-08-25T14:51:16.621Z,20.50
2022-08-25T14:53:47.728Z,20.50
2022-08-25T14:56:20.144Z,20.50
2022-08-25T14:58:54.266Z,20.70
2022-08-25T15:01:29.491Z,20.90
2022-08-25T15:04:04.861Z,20.90
2022-08-25T15:06:37.804Z,21.60
2022-08-25T15:09:12.037Z,22.60
2022-08-25T15:11:46.421Z,23.20
2022-08-25T15:14:18.273Z,24.00
2022-08-25T15:16:51.417Z,24.70
2022-08-25T15:19:24.668Z,25.20
2022-08-25T15:21:57.935Z,25.30
2022-08-25T15:24:32.950Z,25.00
2022-08-25T15:27:10.035Z,25.30
2022-08-25T15:29:41.695Z,26.80
2022-08-25T15:32:13.242Z,28.40
2022-08-25T15:34:45.072Z,29.30
2022-08-25T15:37:18.546Z,30.00
2022-08-25T15:39:49.666Z,31.50
2022-08-25T15:42:23.061Z,31.90
2022-08-25T15:44:55.986Z,31.80
2022-08-25T15:47:30.007Z,32.40
2022-08-25T15:50:10.255Z,33.00
2022-08-25T15:52:47.425Z,32.90
2022-08-25T15:55:20.216Z,32.90
2022-08-25T15:57:52.655Z,32.20
2022-08-25T16:00:25.083Z,33.00
2022-08-25T16:02:55.924Z,34.30
2022-08-25T16:05:27.110Z,34.10
2022-08-25T16:08:00.968Z,34.40
2022-08-25T16:10:36.826Z,35.00
2022-08-25T16:13:11.956Z,34.90
2022-08-25T16:15:43.003Z,35.90
2022-08-25T16:18:13.804Z,36.40
2022-08-25T16:20:47.633Z,36.50
2022-08-25T16:23:20.816Z,36.50
2022-08-25T16:25:51.991Z,36.40
2022-08-25T16:28:24.920Z,36.30
2022-08-25T16:30:55.735Z,36.00
2022-08-25T16:33:26.514Z,36.00
2022-08-25T16:36:05.848Z,36.30
2022-08-25T16:38:37.686Z,36.10
2022-08-25T16:41:09.378Z,36.60
2022-08-25T16:43:42.425Z,36.60
2022-08-25T16:46:17.386Z,36.50
2022-08-25T16:48:49.372Z,36.80
2022-08-25T16:51:29.441Z,36.30
2022-08-25T16:54:20.386Z,36.00
2022-08-25T16:56:54.909Z,36.30
2022-08-25T16:59:28.389Z,36.80
2022-08-25T17:01:59.162Z,37.00
2022-08-25T17:04:32.142Z,37.30
2022-08-25T17:07:03.409Z,37.60
2022-08-25T17:09:35.817Z,37.40
2022-08-25T17:12:09.852Z,36.20
2022-08-25T17:14:42.188Z,36.30
2022-08-25T17:17:12.940Z,36.30
2022-08-25T17:19:46.443Z,37.10
2022-08-25T17:22:19.553Z,36.90
2022-08-25T17:24:59.205Z,37.20
2022-08-25T17:27:31.469Z,37.40
2022-08-25T17:30:03.809Z,37.10
2022-08-25T17:32:34.565Z,37.40
2022-08-25T17:35:08.259Z,37.30
2022-08-25T17:37:39.122Z,37.00
2022-08-25T17:40:11.483Z,36.80
2022-08-25T17:42:43.083Z,36.70
2022-08-25T17:45:15.727Z,37.30
2022-08-25T17:47:46.448Z,37.90
2022-08-25T17:50:17.222Z,37.20
2022-08-25T17:52:48.416Z,36.90
2022-08-25T17:55:22.370Z,37.10
2022-08-25T17:57:54.047Z,37.10
2022-08-25T18:00:27.473Z,37.50
2022-08-25T18:02:59.241Z,37.30
2022-08-25T18:05:30.417Z,38.00
2022-08-25T18:08:01.209Z,36.80
2022-08-25T18:10:34.380Z,36.70
2022-08-25T18:13:05.079Z,37.10
2022-08-25T18:15:37.813Z,36.90
2022-08-25T18:18:13.368Z,37.30
2022-08-25T18:20:48.401Z,37.10
2022-08-25T18:23:20.382Z,37.60
2022-08-25T18:25:52.500Z,37.00
2022-08-25T18:28:32.038Z,37.40
2022-08-25T18:31:04.495Z,37.50
2022-08-25T18:33:35.456Z,36.90
2022-08-25T18:36:06.681Z,37.20
2022-08-25T18:38:58.002Z,36.40
2022-08-25T18:41:31.993Z,36.20
2022-08-25T18:44:02.825Z,36.60
2022-08-25T18:46:35.290Z,37.00
2022-08-25T18:49:07.086Z,37.00
2022-08-25T18:51:39.570Z,37.00
2022-08-25T18:54:22.842Z,36.80
2022-08-25T18:56:55.388Z,37.40
2022-08-25T18:59:26.119Z,36.30
2022-08-25T19:01:58.499Z,36.30
2022-08-25T19:04:33.954Z,36.50
2022-08-25T19:07:05.040Z,36.70
2022-08-25T19:09:38.946Z,36.80
2022-08-25T19:12:11.809Z,36.50
2022-08-25T19:14:53.180Z,36.50
2022-08-25T19:17:25.698Z,36.50
2022-08-25T19:19:58.700Z,36.90
2022-08-25T19:22:41.274Z,37.20
2022-08-25T19:25:13.781Z,36.70
2022-08-25T19:27:44.881Z,36.10
2022-08-25T19:30:19.359Z,36.50
2022-08-25T19:32:52.021Z,36.80
2022-08-25T19:35:30.778Z,36.60
2022-08-25T19:38:03.496Z,36.60
2022-08-25T19:40:38.686Z,36.20
2022-08-25T19:43:09.662Z,36.00
2022-08-25T19:45:41.725Z,35.30
2022-08-25T19:48:16.222Z,35.30
2022-08-25T19:50:47.507Z,35.30
2022-08-25T19:53:19.727Z,35.00
2022-08-25T19:55:50.748Z,34.90
2022-08-25T19:58:21.481Z,34.50
2022-08-25T20:00:52.170Z,34.30
2022-08-25T20:03:24.673Z,34.70
2022-08-25T20:05:56.689Z,34.60
2022-08-25T20:08:31.403Z,34.50
2022-08-25T20:11:02.103Z,34.60
2022-08-25T20:13:32.834Z,34.50
2022-08-25T20:16:03.816Z,34.50
2022-08-25T20:18:38.149Z,34.30
2022-08-25T20:21:11.041Z,34.40
2022-08-25T20:23:58.746Z,34.30
2022-08-25T20:26:29.966Z,34.30
2022-08-25T20:29:00.800Z,34.00
2022-08-25T20:31:32.095Z,34.20
2022-08-25T20:34:04.628Z,34.20
2022-08-25T20:36:36.784Z,34.40
2022-08-25T20:39:09.690Z,34.40
2022-08-25T20:41:41.028Z,34.20
2022-08-25T20:44:11.739Z,33.80
2022-08-25T20:46:42.633Z,33.70
2022-08-25T20:49:15.024Z,33.50
2022-08-25T20:51:46.149Z,33.60
2022-08-25T20:54:17.002Z,33.80
2022-08-25T20:56:47.931Z,34.10
2022-08-25T20:59:19.012Z,33.70
2022-08-25T21:01:50.549Z,33.70
2022-08-25T21:04:26.138Z,33.70
2022-08-25T21:06:56.875Z,33.90
2022-08-25T21:09:31.204Z,34.20
2022-08-25T21:12:02.229Z,33.90
2022-08-25T21:14:33.217Z,34.10
2022-08-25T21:17:04.212Z,34.00
2022-08-25T21:19:37.589Z,34.10
2022-08-25T21:22:10.953Z,34.10
2022-08-25T21:24:42.024Z,34.00
2022-08-25T21:27:15.604Z,33.90
2022-08-25T21:29:54.477Z,34.00
2022-08-25T21:32:26.553Z,34.10
2022-08-25T21:34:59.371Z,34.10
2022-08-25T21:37:30.527Z,33.80
2022-08-25T21:40:01.429Z,33.80
2022-08-25T21:42:32.198Z,33.90
2022-08-25T21:45:03.407Z,34.10
2022-08-25T21:47:34.155Z,33.80
2022-08-25T21:50:07.622Z,33.80
2022-08-25T21:52:38.660Z,34.00
2022-08-25T21:55:16.024Z,33.90
2022-08-25T21:57:47.209Z,33.80
2022-08-25T22:00:18.673Z,33.80
2022-08-25T22:02:53.725Z,33.80
2022-08-25T22:05:26.200Z,33.50
2022-08-25T22:07:57.198Z,33.30
2022-08-25T22:10:28.371Z,33.50
2022-08-25T22:12:59.094Z,33.60
2022-08-25T22:15:31.291Z,33.60
2022-08-25T22:18:02.017Z,33.70
2022-08-25T22:20:35.513Z,33.80
2022-08-25T22:23:10.063Z,33.80
2022-08-25T22:25:51.225Z,33.70
2022-08-25T22:28:22.322Z,33.70
2022-08-25T22:30:54.280Z,33.50
2022-08-25T22:33:25.260Z,33.40
2022-08-25T22:36:00.071Z,33.60
2022-08-25T22:38:30.953Z,33.80
2022-08-25T22:41:05.741Z,33.90
2022-08-25T22:43:36.435Z,33.90
2022-08-25T22:46:08.234Z,33.80
2022-08-25T22:48:43.567Z,33.70
2022-08-25T22:51:20.703Z,33.70
2022-08-25T22:53:52.213Z,33.70
2022-08-25T22:56:30.627Z,33.60
2022-08-25T22:59:03.432Z,33.50
2022-08-25T23:01:35.424Z,33.50
2022-08-25T23:04:07.204Z,33.40
2022-08-25T23:06:39.812Z,33.40
2022-08-25T23:09:11.603Z,33.40
2022-08-25T23:11:42.835Z,33.30
2022-08-25T23:14:14.401Z,33.20
2022-08-25T23:16:46.080Z,33.10
2022-08-25T23:19:17.146Z,33.20
2022-08-25T23:22:05.880Z,33.20
2022-08-25T23:24:36.628Z,33.20
2022-08-25T23:27:08.622Z,33.20
2022-08-25T23:29:41.415Z,33.20
2022-08-25T23:32:14.957Z,33.30
2022-08-25T23:34:47.382Z,33.30
2022-08-25T23:37:20.010Z,33.30
2022-08-25T23:39:51.168Z,33.30
2022-08-25T23:42:23.012Z,33.40
2022-08-25T23:44:53.727Z,33.40
2022-08-25T23:47:24.452Z,33.30
2022-08-25T23:49:55.171Z,33.20
2022-08-25T23:52:28.166Z,33.20
2022-08-25T23:54:58.921Z,33.10
2022-08-25T23:57:29.689Z,33.00
